Time;durP1;ratioP1;P1;durP2;ratioP2;P2;SDS_P1;SDS_P2;PMS_P1;PMS_P2;Temp;Humidity;BMP_temperature;BMP_pressure;BME280_temperature;BME280_humidity;BME280_pressure;Samples;Min_cycle;Max_cycle;Signal;HPM_P1;HPM_P2
2021/10/26 00:00:46;;;;;;;7.50;4.47;;;8.10;99.90;;;;;;4983845;28;20061;-94
2021/10/26 00:03:12;;;;;;;7.65;3.70;;;8.10;99.90;;;;;;4983641;28;20026;-94
2021/10/26 00:05:38;;;;;;;6.97;3.47;;;8.10;99.90;;;;;;4985054;28;20046;-95
2021/10/26 00:08:04;;;;;;;7.05;3.83;;;8.10;99.90;;;;;;4984278;28;20039;-95
2021/10/26 00:10:30;;;;;;;8.48;3.50;;;8.20;99.90;;;;;;4984786;28;20077;-95
2021/10/26 00:12:55;;;;;;;7.95;3.63;;;8.20;99.90;;;;;;4985406;28;20213;-95
2021/10/26 00:15:22;;;;;;;10.43;4.13;;;8.20;99.90;;;;;;4983871;28;20026;-94
2021/10/26 00:17:48;;;;;;;9.60;3.97;;;8.30;99.90;;;;;;4984985;28;20034;-94
2021/10/26 00:20:14;;;;;;;7.15;3.50;;;8.30;99.90;;;;;;4984295;28;20033;-95
2021/10/26 00:22:40;;;;;;;11.18;4.47;;;8.30;99.90;;;;;;4986316;28;20034;-94
2021/10/26 00:25:06;;;;;;;11.15;4.38;;;8.30;99.90;;;;;;4983966;28;20035;-95
2021/10/26 00:27:32;;;;;;;14.43;3.92;;;8.30;99.90;;;;;;4984085;28;20050;-94
2021/10/26 00:29:58;;;;;;;6.97;3.72;;;8.30;99.90;;;;;;4986620;28;20503;-93
2021/10/26 00:32:25;;;;;;;11.18;3.97;;;8.30;99.90;;;;;;4987222;28;20047;-94
2021/10/26 00:34:51;;;;;;;7.38;2.58;;;8.30;99.90;;;;;;4988531;28;20052;-93
2021/10/26 00:37:18;;;;;;;8.57;3.80;;;8.30;99.90;;;;;;4987496;28;20031;-95
2021/10/26 00:39:45;;;;;;;11.63;3.60;;;8.40;99.90;;;;;;4987881;28;20033;-94
2021/10/26 00:42:11;;;;;;;11.00;3.28;;;8.30;99.90;;;;;;4987778;28;20027;-94
2021/10/26 00:44:40;;;;;;;6.43;3.15;;;8.40;99.90;;;;;;4986524;28;20039;-95
2021/10/26 00:47:06;;;;;;;7.97;3.05;;;8.40;99.90;;;;;;4989041;28;20122;-95
2021/10/26 00:49:35;;;;;;;16.15;4.32;;;8.40;99.90;;;;;;4986791;28;20496;-94
2021/10/26 00:52:01;;;;;;;10.95;4.05;;;8.40;99.90;;;;;;4987914;28;20558;-95
2021/10/26 00:54:28;;;;;;;10.27;4.45;;;8.50;99.90;;;;;;4985886;28;20067;-94
2021/10/26 00:56:55;;;;;;;14.30;3.65;;;8.50;99.90;;;;;;4987034;28;20026;-94
2021/10/26 00:59:21;;;;;;;6.72;2.95;;;8.50;99.90;;;;;;4988343;28;20061;-94
2021/10/26 01:01:47;;;;;;;6.78;2.45;;;8.50;99.90;;;;;;4989243;28;20026;-95
2021/10/26 01:04:13;;;;;;;9.32;3.15;;;8.50;99.90;;;;;;4988656;28;20108;-95
2021/10/26 01:06:39;;;;;;;10.55;3.25;;;8.50;99.90;;;;;;4985604;28;20030;-94
2021/10/26 01:09:05;;;;;;;11.20;3.13;;;8.50;99.90;;;;;;4989638;28;20022;-94
2021/10/26 01:11:33;;;;;;;12.07;2.97;;;8.60;99.90;;;;;;4990050;28;20034;-94
2021/10/26 01:13:59;;;;;;;11.60;3.42;;;8.50;99.90;;;;;;4992014;28;20034;-94
2021/10/26 01:16:25;;;;;;;10.38;3.45;;;8.60;99.90;;;;;;4988725;28;20030;-94
2021/10/26 01:18:52;;;;;;;8.02;4.00;;;8.60;99.90;;;;;;4985835;28;20046;-93
2021/10/26 01:21:18;;;;;;;5.40;2.53;;;8.60;99.90;;;;;;4986201;28;20022;-94
2021/10/26 01:23:44;;;;;;;9.18;2.83;;;8.60;99.90;;;;;;4989569;28;20038;-94
2021/10/26 01:26:09;;;;;;;8.10;2.72;;;8.70;99.90;;;;;;4984262;28;20081;-94
2021/10/26 01:28:35;;;;;;;12.13;3.05;;;8.70;99.90;;;;;;4983512;28;20049;-93
2021/10/26 01:31:02;;;;;;;14.82;3.08;;;8.70;99.90;;;;;;4986150;28;20022;-95
2021/10/26 01:33:28;;;;;;;9.25;3.13;;;8.70;99.90;;;;;;4982181;28;20031;-95
2021/10/26 01:35:54;;;;;;;4.82;2.78;;;8.70;99.90;;;;;;4984672;28;20049;-94
2021/10/26 01:38:24;;;;;;;16.63;3.78;;;8.70;99.90;;;;;;4982358;28;20085;-94
2021/10/26 01:40:51;;;;;;;6.97;2.60;;;8.70;99.90;;;;;;4986052;28;20054;-95
2021/10/26 01:43:17;;;;;;;11.40;2.70;;;8.70;99.90;;;;;;4990050;28;20049;-93
2021/10/26 01:45:43;;;;;;;10.32;2.92;;;8.70;99.90;;;;;;4988245;28;20098;-94
2021/10/26 01:48:09;;;;;;;11.48;3.03;;;8.70;99.90;;;;;;4984541;28;20567;-93
2021/10/26 01:50:34;;;;;;;8.35;3.20;;;8.70;99.90;;;;;;4983227;28;20065;-96
2021/10/26 01:53:00;;;;;;;7.43;2.10;;;8.80;99.90;;;;;;4984106;28;20028;-93
2021/10/26 01:55:26;;;;;;;6.57;2.10;;;8.70;99.90;;;;;;4985205;28;20254;-94
2021/10/26 01:57:52;;;;;;;9.63;3.05;;;8.70;99.90;;;;;;4984744;28;20086;-95
2021/10/26 02:00:19;;;;;;;5.72;2.67;;;8.80;99.90;;;;;;4983219;28;20026;-94
2021/10/26 02:02:49;;;;;;;8.38;2.10;;;8.80;99.90;;;;;;4984308;28;20057;-93
2021/10/26 02:05:18;;;;;;;5.15;1.95;;;8.80;99.90;;;;;;4984753;28;20026;-93
2021/10/26 02:07:45;;;;;;;4.45;2.40;;;8.80;99.90;;;;;;4983295;28;20045;-94
2021/10/26 02:10:11;;;;;;;6.18;2.58;;;8.80;99.90;;;;;;4983534;28;20031;-94
2021/10/26 02:12:40;;;;;;;8.25;2.53;;;8.80;99.90;;;;;;4984618;28;20102;-95
2021/10/26 02:15:07;;;;;;;8.48;2.60;;;8.80;99.90;;;;;;4982240;28;20027;-93
2021/10/26 02:17:33;;;;;;;10.65;2.60;;;8.80;99.90;;;;;;4988897;28;20023;-93
2021/10/26 02:19:59;;;;;;;8.25;2.72;;;8.90;99.90;;;;;;4998618;28;20102;-93
2021/10/26 02:22:25;;;;;;;7.90;2.78;;;8.90;99.90;;;;;;4994418;28;20476;-93
2021/10/26 02:24:51;;;;;;;4.10;1.85;;;8.90;99.90;;;;;;4991339;28;20042;-94
2021/10/26 02:27:17;;;;;;;13.27;2.70;;;8.90;99.90;;;;;;4987303;28;20518;-94
2021/10/26 02:29:42;;;;;;;4.97;2.03;;;8.90;99.90;;;;;;4988545;28;20026;-93
2021/10/26 02:32:08;;;;;;;9.65;2.67;;;8.90;99.90;;;;;;4988146;28;20030;-94
2021/10/26 02:34:35;;;;;;;11.88;2.88;;;9.00;99.90;;;;;;4986955;28;20038;-93
2021/10/26 02:37:01;;;;;;;8.13;2.40;;;9.00;99.90;;;;;;4986982;28;20113;-94
2021/10/26 02:39:27;;;;;;;7.53;2.25;;;9.00;99.90;;;;;;4987249;28;20038;-95
2021/10/26 02:41:52;;;;;;;12.25;2.53;;;9.00;99.90;;;;;;4985639;28;20034;-94
2021/10/26 02:44:18;;;;;;;7.93;2.10;;;9.00;99.90;;;;;;4985748;28;20081;-94
2021/10/26 02:46:44;;;;;;;4.68;2.38;;;9.10;99.90;;;;;;4987056;28;20034;-93
2021/10/26 02:49:10;;;;;;;12.85;2.45;;;9.10;99.90;;;;;;4996611;28;20022;-95
2021/10/26 02:51:37;;;;;;;11.75;2.90;;;9.10;99.90;;;;;;4994968;28;20073;-95
2021/10/26 02:54:05;;;;;;;7.32;2.05;;;9.20;99.90;;;;;;4992082;28;20038;-95
2021/10/26 02:56:36;;;;;;;9.55;2.00;;;9.20;99.90;;;;;;4995014;28;20472;-96
2021/10/26 02:59:02;;;;;;;;;;;9.20;99.90;;;;;;4991422;28;20526;-94
2021/10/26 03:01:28;;;;;;;11.68;2.25;;;9.20;99.90;;;;;;5008700;28;19910;-94
2021/10/26 03:03:54;;;;;;;7.22;1.90;;;9.20;99.90;;;;;;4987842;28;20034;-94
2021/10/26 03:06:20;;;;;;;8.15;1.80;;;9.20;99.90;;;;;;4986817;28;20030;-95
2021/10/26 03:08:46;;;;;;;9.02;2.10;;;9.20;99.90;;;;;;4985972;28;20042;-94
2021/10/26 03:11:11;;;;;;;6.82;1.60;;;9.20;99.90;;;;;;4988088;28;20117;-95
2021/10/26 03:13:37;;;;;;;7.28;1.60;;;9.20;99.90;;;;;;4986027;28;20058;-94
2021/10/26 03:16:03;;;;;;;9.15;2.10;;;9.20;99.90;;;;;;4986173;28;20026;-94
2021/10/26 03:18:29;;;;;;;9.88;2.13;;;9.20;99.90;;;;;;4987378;28;20034;-94
2021/10/26 03:20:58;;;;;;;5.68;1.67;;;9.20;99.90;;;;;;4989882;28;20031;-95
2021/10/26 03:23:25;;;;;;;5.00;1.83;;;9.20;99.90;;;;;;4991856;28;20022;-94
2021/10/26 03:25:52;;;;;;;7.75;2.10;;;9.20;99.90;;;;;;4996604;28;20027;-95
2021/10/26 03:28:20;;;;;;;6.93;2.00;;;9.30;99.90;;;;;;5008472;28;20030;-95
2021/10/26 03:30:49;;;;;;;7.70;2.00;;;9.30;99.90;;;;;;4995087;28;20026;-94
2021/10/26 03:33:15;;;;;;;6.07;1.58;;;9.30;99.90;;;;;;4995989;28;20030;-95
2021/10/26 03:35:41;;;;;;;11.88;1.90;;;9.30;99.90;;;;;;4990546;28;20094;-95
2021/10/26 03:38:06;;;;;;;10.43;2.45;;;9.30;99.90;;;;;;4994868;28;20033;-94
2021/10/26 03:40:34;;;;;;;8.32;2.70;;;9.30;99.90;;;;;;4990057;28;20057;-94
2021/10/26 03:43:00;;;;;;;10.55;2.50;;;9.30;99.90;;;;;;4989118;28;20037;-95
2021/10/26 03:45:26;;;;;;;5.90;1.92;;;9.30;99.90;;;;;;4992075;28;20030;-95
2021/10/26 03:47:55;;;;;;;16.80;2.08;;;9.30;99.90;;;;;;4980538;28;20031;-95
2021/10/26 03:50:24;;;;;;;7.45;1.92;;;9.30;99.90;;;;;;4959322;28;20026;-95
2021/10/26 03:52:52;;;;;;;5.22;1.55;;;9.30;99.90;;;;;;4991667;28;20042;-95
2021/10/26 03:55:20;;;;;;;4.65;1.55;;;9.30;99.90;;;;;;5011237;28;20034;-95
2021/10/26 03:57:47;;;;;;;6.30;2.17;;;9.30;99.90;;;;;;5009048;28;20095;-95
2021/10/26 04:00:13;;;;;;;7.95;2.10;;;9.30;99.90;;;;;;4993420;28;20026;-94
2021/10/26 04:02:41;;;;;;;3.35;1.67;;;9.30;99.90;;;;;;4993553;28;20126;-95
2021/10/26 04:05:26;;;;;;;6.03;1.88;;;9.30;99.90;;;;;;4994478;28;20056;-96
2021/10/26 04:07:58;;;;;;;8.05;2.40;;;9.30;99.90;;;;;;4993624;28;20041;-95
2021/10/26 04:11:00;;;;;;;11.63;2.80;;;9.30;99.90;;;;;;4993512;28;20029;-95
2021/10/26 04:13:19;;;;;;;9.02;2.28;;;9.30;99.90;;;;;;5007280;28;20041;-96
2021/10/26 04:15:45;;;;;;;9.85;2.10;;;9.30;99.90;;;;;;4990393;28;20026;-95
2021/10/26 04:18:11;;;;;;;9.80;2.17;;;9.30;99.90;;;;;;4991692;28;20038;-95
2021/10/26 04:20:36;;;;;;;5.78;1.55;;;9.30;99.90;;;;;;4985999;28;20030;-94
2021/10/26 04:23:02;;;;;;;3.75;1.48;;;9.30;99.90;;;;;;4989987;28;20030;-94
2021/10/26 04:25:46;;;;;;;9.40;2.05;;;9.30;99.90;;;;;;4992495;28;20026;-96
2021/10/26 04:28:14;;;;;;;7.68;2.15;;;9.30;99.90;;;;;;5017020;28;20018;-94
2021/10/26 04:30:42;;;;;;;8.65;1.63;;;9.30;99.90;;;;;;4991950;28;20049;-95
2021/10/26 04:33:08;;;;;;;7.60;2.30;;;9.30;99.90;;;;;;4988988;28;20031;-94
2021/10/26 04:35:35;;;;;;;9.52;1.90;;;9.30;99.90;;;;;;4991807;28;20057;-95
2021/10/26 04:38:01;;;;;;;5.55;1.35;;;9.30;99.90;;;;;;4992824;28;20057;-95
2021/10/26 04:40:27;;;;;;;8.80;2.35;;;9.30;99.90;;;;;;4974792;28;20049;-95
2021/10/26 04:42:53;;;;;;;7.35;2.30;;;9.30;99.90;;;;;;4989846;28;20022;-95
2021/10/26 04:45:22;;;;;;;8.38;2.80;;;9.30;99.90;;;;;;4986243;28;20534;-96
2021/10/26 04:47:48;;;;;;;9.00;2.40;;;9.30;99.90;;;;;;4988657;28;20033;-95
2021/10/26 04:50:32;;;;;;;10.82;2.50;;;9.30;99.90;;;;;;4991917;28;20033;-96
2021/10/26 04:53:03;;;;;;;9.73;3.03;;;9.30;99.90;;;;;;5007461;28;20086;-94
2021/10/26 04:55:29;;;;;;;9.95;2.60;;;9.30;99.90;;;;;;4989131;28;20034;-93
2021/10/26 04:57:56;;;;;;;8.52;2.53;;;9.20;99.90;;;;;;4986210;28;20058;-94
2021/10/26 05:00:22;;;;;;;8.07;2.42;;;9.20;99.90;;;;;;4983862;28;20110;-94
2021/10/26 05:02:49;;;;;;;8.63;2.95;;;9.20;99.90;;;;;;4988880;28;20027;-95
2021/10/26 05:05:15;;;;;;;8.25;3.30;;;9.20;99.90;;;;;;4987590;28;20026;-95
2021/10/26 05:07:41;;;;;;;5.60;2.47;;;9.20;99.90;;;;;;4984376;28;20037;-94
2021/10/26 05:10:07;;;;;;;5.97;2.38;;;9.20;99.90;;;;;;4986097;28;20039;-95
2021/10/26 05:12:36;;;;;;;9.63;2.33;;;9.20;99.90;;;;;;4982128;28;20027;-95
2021/10/26 05:15:03;;;;;;;8.07;2.63;;;9.20;99.90;;;;;;4988048;28;20058;-95
2021/10/26 05:17:33;;;;;;;8.52;2.60;;;9.20;99.90;;;;;;4988501;28;20047;-94
2021/10/26 05:19:59;;;;;;;15.65;3.55;;;9.20;99.90;;;;;;4988378;28;20031;-94
2021/10/26 05:22:27;;;;;;;8.27;2.15;;;9.10;99.90;;;;;;4989233;28;20019;-94
2021/10/26 05:24:53;;;;;;;7.18;2.17;;;9.20;99.90;;;;;;4990015;28;20051;-93
2021/10/26 05:27:20;;;;;;;11.57;2.55;;;9.20;99.90;;;;;;4988321;28;20054;-94
2021/10/26 05:29:46;;;;;;;6.57;2.35;;;9.20;99.90;;;;;;4991475;28;20035;-94
2021/10/26 05:32:14;;;;;;;14.85;3.58;;;9.20;99.90;;;;;;4987955;28;20023;-94
2021/10/26 05:34:40;;;;;;;8.95;2.45;;;9.20;99.90;;;;;;4988225;28;20102;-94
2021/10/26 05:37:10;;;;;;;10.30;2.70;;;9.10;99.90;;;;;;4989345;28;20033;-94
2021/10/26 05:39:38;;;;;;;10.98;2.47;;;9.10;99.90;;;;;;4986967;28;20043;-93
2021/10/26 05:42:07;;;;;;;15.98;3.22;;;9.10;99.90;;;;;;4990595;28;20035;-96
2021/10/26 05:44:34;;;;;;;7.68;2.95;;;9.10;99.90;;;;;;4989566;28;20022;-94
2021/10/26 05:47:02;;;;;;;9.52;2.25;;;9.10;99.90;;;;;;4973238;28;20023;-94
2021/10/26 05:49:36;;;;;;;15.88;2.92;;;9.10;99.90;;;;;;4988659;28;20029;-93
2021/10/26 05:52:09;;;;;;;12.93;2.67;;;9.10;99.90;;;;;;4991237;28;20037;-94
2021/10/26 05:54:35;;;;;;;13.35;2.63;;;9.10;99.90;;;;;;4988654;28;20094;-95
2021/10/26 05:59:32;;;;;;;15.25;2.90;;;9.10;99.90;;;;;;4984864;28;20042;-96
2021/10/26 06:02:04;;;;;;;10.70;2.35;;;9.10;99.90;;;;;;5005564;28;20015;-95
2021/10/26 06:04:30;;;;;;;10.00;2.63;;;9.10;99.90;;;;;;4987740;28;20022;-95
2021/10/26 06:06:57;;;;;;;14.13;3.28;;;9.10;99.90;;;;;;5000552;28;20055;-95
2021/10/26 06:09:28;;;;;;;11.27;2.55;;;9.10;99.90;;;;;;5018118;28;20023;-95
2021/10/26 06:11:57;;;;;;;9.00;2.42;;;9.10;99.90;;;;;;4997763;28;20094;-95
2021/10/26 06:14:23;;;;;;;10.70;2.85;;;9.10;99.90;;;;;;4998137;28;20030;-94
2021/10/26 06:16:49;;;;;;;11.35;3.60;;;9.10;99.90;;;;;;4999085;28;20026;-94
2021/10/26 06:19:15;;;;;;;10.38;2.72;;;9.10;99.90;;;;;;4997609;28;20057;-94
2021/10/26 06:21:43;;;;;;;14.93;2.65;;;9.10;99.90;;;;;;4996964;28;20022;-94
2021/10/26 06:24:10;;;;;;;9.32;3.33;;;9.10;99.90;;;;;;5015354;28;20038;-94
2021/10/26 06:26:37;;;;;;;7.70;2.75;;;9.10;99.90;;;;;;4996562;28;20030;-94
2021/10/26 06:29:04;;;;;;;11.73;2.45;;;9.10;99.90;;;;;;4995771;28;20117;-94
2021/10/26 06:31:30;;;;;;;12.05;2.95;;;9.10;99.90;;;;;;4979053;28;20468;-94
2021/10/26 06:33:57;;;;;;;9.05;2.08;;;9.10;99.90;;;;;;4996648;28;20028;-93
2021/10/26 06:36:23;;;;;;;9.75;2.88;;;9.10;99.90;;;;;;4992853;28;20030;-95
2021/10/26 06:38:51;;;;;;;10.27;2.55;;;9.10;99.90;;;;;;4994073;28;20045;-94
2021/10/26 06:41:17;;;;;;;11.05;3.10;;;9.10;99.90;;;;;;4994229;28;20030;-94
2021/10/26 06:43:48;;;;;;;7.93;2.72;;;9.10;99.90;;;;;;4995886;28;20034;-94
2021/10/26 06:46:15;;;;;;;11.05;2.58;;;9.10;99.90;;;;;;4993962;28;20028;-93
2021/10/26 06:48:42;;;;;;;10.73;2.78;;;9.10;99.90;;;;;;4991236;28;20043;-93
2021/10/26 06:51:08;;;;;;;8.18;2.45;;;9.10;99.90;;;;;;4995770;28;20070;-94
2021/10/26 06:53:38;;;;;;;8.40;2.53;;;9.10;99.90;;;;;;4993523;28;20026;-96
2021/10/26 06:56:09;;;;;;;9.75;2.90;;;9.10;99.90;;;;;;4991122;28;20035;-94
2021/10/26 06:58:35;;;;;;;;;;;9.10;99.90;;;;;;4991282;28;20093;-94
2021/10/26 07:01:06;;;;;;;11.48;2.78;;;9.10;99.90;;;;;;4993243;28;19910;-95
2021/10/26 07:03:32;;;;;;;11.55;3.38;;;9.10;99.90;;;;;;4997682;28;20173;-94
2021/10/26 07:05:58;;;;;;;7.15;3.03;;;9.10;99.90;;;;;;4995526;28;20026;-94
2021/10/26 07:08:25;;;;;;;10.10;3.15;;;9.10;99.90;;;;;;4997953;28;20038;-94
2021/10/26 07:10:56;;;;;;;6.15;2.70;;;9.00;99.90;;;;;;5015323;28;20037;-93
2021/10/26 07:13:23;;;;;;;12.50;3.00;;;9.10;99.90;;;;;;5013916;28;20046;-95
2021/10/26 07:15:49;;;;;;;11.90;2.60;;;9.00;99.90;;;;;;4996943;28;20027;-94
2021/10/26 07:18:15;;;;;;;13.73;3.30;;;9.00;99.90;;;;;;4998209;28;20034;-94
2021/10/26 07:20:42;;;;;;;11.45;3.03;;;9.10;99.90;;;;;;5001258;28;20058;-94
2021/10/26 07:23:08;;;;;;;11.68;3.03;;;9.10;99.90;;;;;;5001250;28;20038;-94
2021/10/26 07:25:36;;;;;;;13.43;2.72;;;9.10;99.90;;;;;;5001548;28;20083;-94
2021/10/26 07:28:02;;;;;;;8.52;2.88;;;9.10;99.90;;;;;;5001263;28;20030;-93
2021/10/26 07:30:36;;;;;;;8.90;3.20;;;9.10;99.90;;;;;;5000547;28;20030;-94
2021/10/26 07:33:04;;;;;;;22.55;5.55;;;9.10;99.90;;;;;;5014840;28;20019;-93
2021/10/26 07:36:10;;;;;;;8.82;3.22;;;9.20;99.90;;;;;;4997090;28;20034;-95
2021/10/26 07:38:43;;;;;;;12.65;3.38;;;9.20;99.90;;;;;;5004385;28;20042;-95
2021/10/26 07:41:10;;;;;;;8.95;3.30;;;9.20;99.90;;;;;;4982502;28;20114;-93
2021/10/26 07:43:39;;;;;;;10.82;3.40;;;9.20;99.90;;;;;;5000322;28;20030;-94
2021/10/26 07:46:06;;;;;;;6.97;2.97;;;9.20;99.90;;;;;;4998645;28;20034;-95
2021/10/26 07:48:33;;;;;;;13.75;3.55;;;9.30;99.90;;;;;;4999601;28;20026;-92
2021/10/26 07:51:02;;;;;;;10.77;3.47;;;9.30;99.90;;;;;;4995067;28;20030;-94
2021/10/26 07:53:34;;;;;;;10.35;4.20;;;9.30;99.90;;;;;;4994802;28;20030;-95
2021/10/26 07:56:04;;;;;;;12.23;3.78;;;9.30;99.90;;;;;;5013003;28;20026;-93
2021/10/26 07:58:30;;;;;;;13.77;3.90;;;9.40;99.90;;;;;;4995417;28;20061;-95
2021/10/26 08:00:57;;;;;;;9.27;3.70;;;9.40;99.90;;;;;;4996286;28;20037;-94
2021/10/26 08:03:23;;;;;;;7.00;3.20;;;9.50;99.90;;;;;;4982193;28;20047;-94
2021/10/26 08:05:53;;;;;;;11.65;2.70;;;9.50;99.90;;;;;;4996248;28;20023;-95
2021/10/26 08:08:20;;;;;;;9.70;2.90;;;9.50;99.90;;;;;;4996491;28;20511;-94
2021/10/26 08:10:56;;;;;;;12.93;3.03;;;9.50;99.90;;;;;;4997736;28;20041;-94
2021/10/26 08:13:24;;;;;;;16.80;3.42;;;9.60;99.90;;;;;;4994377;28;20015;-95
2021/10/26 08:15:58;;;;;;;14.48;3.15;;;9.60;99.90;;;;;;4981799;28;20030;-94
2021/10/26 08:18:24;;;;;;;7.53;3.20;;;9.70;99.90;;;;;;4998350;28;20038;-94
2021/10/26 08:20:56;;;;;;;12.63;3.85;;;9.70;99.90;;;;;;5002324;28;20042;-92
2021/10/26 08:23:29;;;;;;;7.72;2.72;;;9.70;99.90;;;;;;4984435;28;20039;-94
2021/10/26 08:26:00;;;;;;;8.10;2.90;;;9.70;99.90;;;;;;4999140;28;20018;-95
2021/10/26 08:28:35;;;;;;;9.10;3.55;;;9.70;99.90;;;;;;5017341;28;20038;-95
2021/10/26 08:31:14;;;;;;;6.47;2.60;;;9.80;99.90;;;;;;4981728;28;20022;-95
2021/10/26 08:34:04;;;;;;;10.20;3.67;;;9.80;99.90;;;;;;4996851;28;20053;-94
2021/10/26 08:36:28;;;;;;;14.73;3.83;;;9.80;99.90;;;;;;5007002;28;20030;-94
2021/10/26 08:38:54;;;;;;;8.90;4.07;;;9.80;99.90;;;;;;4994311;28;20212;-95
2021/10/26 08:41:23;;;;;;;9.57;3.70;;;9.80;99.90;;;;;;4994677;28;20018;-95
2021/10/26 08:43:53;;;;;;;12.27;3.72;;;9.80;99.90;;;;;;4993088;28;20098;-96
2021/10/26 08:46:19;;;;;;;14.65;4.18;;;9.80;99.90;;;;;;4990284;28;20026;-96
2021/10/26 08:48:50;;;;;;;8.35;3.85;;;9.80;99.90;;;;;;4977343;28;20046;-95
2021/10/26 08:51:16;;;;;;;16.90;3.97;;;9.80;99.90;;;;;;4989973;28;20022;-96
2021/10/26 08:53:44;;;;;;;7.85;3.10;;;9.80;99.90;;;;;;4991557;28;20026;-96
2021/10/26 08:56:13;;;;;;;6.80;2.60;;;9.80;99.90;;;;;;4990705;28;20026;-96
2021/10/26 08:58:42;;;;;;;7.72;4.68;;;9.80;99.90;;;;;;4988601;28;20133;-96
2021/10/26 09:01:08;;;;;;;12.57;4.00;;;9.80;99.90;;;;;;4992070;28;20046;-96
2021/10/26 09:03:39;;;;;;;16.60;3.97;;;9.80;99.90;;;;;;4973046;28;20054;-96
2021/10/26 09:06:09;;;;;;;8.80;3.05;;;9.80;99.90;;;;;;4988991;28;20476;-93
2021/10/26 09:08:35;;;;;;;11.90;3.72;;;9.80;99.90;;;;;;4975533;28;20102;-94
2021/10/26 09:11:28;;;;;;;11.90;3.28;;;9.80;99.90;;;;;;4990081;28;20053;-96
2021/10/26 09:19:26;;;;;;;13.95;3.35;;;9.90;99.90;;;;;;5003603;28;20117;-95
2021/10/26 09:22:03;;;;;;;12.52;4.57;;;9.90;99.90;;;;;;4993967;28;20011;-95
2021/10/26 09:24:31;;;;;;;10.95;3.05;;;10.00;99.90;;;;;;4986095;28;20054;-94
2021/10/26 09:27:02;;;;;;;11.52;2.72;;;10.00;99.90;;;;;;4984325;28;20315;-95
2021/10/26 09:29:30;;;;;;;10.73;3.00;;;10.00;99.90;;;;;;4986043;28;20030;-95
2021/10/26 09:32:34;;;;;;;11.07;2.70;;;10.10;99.90;;;;;;4984990;28;20266;-96
2021/10/26 09:35:12;;;;;;;4.50;2.30;;;10.10;99.90;;;;;;4983575;28;20061;-94
2021/10/26 09:37:45;;;;;;;7.60;2.58;;;10.10;99.90;;;;;;4984266;28;20077;-95
2021/10/26 09:40:12;;;;;;;12.68;3.58;;;10.20;99.90;;;;;;4983976;28;20034;-96
2021/10/26 09:42:50;;;;;;;7.47;2.50;;;10.20;99.90;;;;;;4985156;28;20030;-94
2021/10/26 09:45:25;;;;;;;8.52;2.42;;;10.30;99.90;;;;;;4983674;28;20057;-94
2021/10/26 09:48:00;;;;;;;7.45;2.17;;;10.40;99.90;;;;;;4983525;28;20018;-95
2021/10/26 09:50:36;;;;;;;5.45;1.85;;;10.40;99.90;;;;;;4982441;28;20480;-96
2021/10/26 09:53:07;;;;;;;7.15;2.35;;;10.50;99.90;;;;;;4987070;28;20086;-95
2021/10/26 09:55:50;;;;;;;7.45;2.20;;;10.60;99.90;;;;;;4985203;28;20062;-93
2021/10/26 09:58:20;;;;;;;4.60;1.63;;;10.60;99.90;;;;;;4986113;28;20054;-95
2021/10/26 10:00:47;;;;;;;4.72;1.95;;;10.70;99.90;;;;;;4986818;28;20037;-95
2021/10/26 10:03:23;;;;;;;2.22;1.42;;;10.80;99.90;;;;;;4986321;28;20026;-95
2021/10/26 10:06:01;;;;;;;3.17;1.63;;;10.80;99.90;;;;;;4971176;28;20118;-96
2021/10/26 10:08:35;;;;;;;4.57;2.05;;;10.90;99.90;;;;;;5008448;28;20039;-95
2021/10/26 10:11:26;;;;;;;3.80;1.85;;;11.00;99.90;;;;;;4990932;28;20041;-95
2021/10/26 10:13:56;;;;;;;4.85;1.73;;;11.10;99.90;;;;;;4989931;28;20062;-95
2021/10/26 10:16:25;;;;;;;3.58;1.80;;;11.10;99.90;;;;;;4994631;28;20060;-95
2021/10/26 10:19:05;;;;;;;3.53;1.88;;;11.20;99.90;;;;;;5007631;28;20038;-94
2021/10/26 10:21:35;;;;;;;8.23;1.92;;;11.30;99.90;;;;;;5006103;28;20023;-95
2021/10/26 10:24:07;;;;;;;3.70;1.80;;;11.40;99.90;;;;;;4990705;28;20090;-96
2021/10/26 10:26:37;;;;;;;6.82;1.73;;;11.40;99.90;;;;;;4976457;28;20034;-95
2021/10/26 10:29:03;;;;;;;3.67;1.48;;;11.50;99.90;;;;;;4991097;28;20033;-96
2021/10/26 10:31:34;;;;;;;2.58;1.33;;;11.60;99.90;;;;;;4993766;28;20057;-94
2021/10/26 10:34:32;;;;;;;5.90;1.90;;;11.60;99.90;;;;;;4993597;28;20027;-96
2021/10/26 10:37:11;;;;;;;2.35;1.60;;;11.70;99.90;;;;;;4995921;28;20022;-96
2021/10/26 10:39:42;;;;;;;9.57;1.80;;;11.80;99.90;;;;;;4978834;28;20042;-96
2021/10/26 10:42:21;;;;;;;3.78;1.85;;;12.00;99.90;;;;;;4996038;28;20015;-96
2021/10/26 10:44:58;;;;;;;2.95;2.05;;;12.10;99.90;;;;;;5006489;28;20091;-96
2021/10/26 10:48:02;;;;;;;8.05;1.90;;;12.30;99.90;;;;;;4983115;28;20090;-96
2021/10/26 10:51:04;;;;;;;5.20;1.73;;;12.40;99.90;;;;;;4996976;28;20043;-96
2021/10/26 10:53:35;;;;;;;5.15;1.77;;;12.50;99.90;;;;;;4982520;28;20027;-96
2021/10/26 10:56:22;;;;;;;4.00;1.58;;;12.60;99.90;;;;;;4981349;28;20038;-96
2021/10/26 10:58:49;;;;;;;4.20;1.40;;;12.60;99.90;;;;;;4975641;28;20051;-95
2021/10/26 11:01:34;;;;;;;4.82;1.50;;;12.80;99.90;;;;;;4975847;28;20027;-96
2021/10/26 11:04:21;;;;;;;3.53;1.80;;;13.10;99.90;;;;;;4963607;28;20058;-94
2021/10/26 11:06:47;;;;;;;5.93;1.70;;;13.60;99.90;;;;;;4961265;28;20046;-93
2021/10/26 11:09:27;;;;;;;2.88;1.08;;;14.20;99.90;;;;;;4965588;28;20507;-94
2021/10/26 11:12:27;;;;;;;6.85;1.70;;;14.70;99.90;;;;;;4966712;28;20023;-95
2021/10/26 11:14:59;;;;;;;3.80;1.27;;;15.00;99.90;;;;;;4966436;28;20039;-95
2021/10/26 11:20:03;;;;;;;4.22;1.40;;;15.30;99.90;;;;;;4981624;28;20049;-94
2021/10/26 11:22:50;;;;;;;3.42;2.25;;;15.40;99.90;;;;;;4961065;28;20019;-94
2021/10/26 11:25:32;;;;;;;4.97;1.30;;;15.70;99.90;;;;;;4960651;28;20571;-95
2021/10/26 11:28:17;;;;;;;1.40;1.25;;;16.00;99.90;;;;;;4960525;28;20432;-96
2021/10/26 11:30:43;;;;;;;2.20;1.10;;;16.50;99.90;;;;;;4960683;28;20027;-94
2021/10/26 11:33:17;;;;;;;4.47;1.20;;;16.80;99.90;;;;;;4959973;28;20037;-95
2021/10/26 11:35:52;;;;;;;2.55;0.68;;;17.10;99.90;;;;;;4960827;28;20019;-93
2021/10/26 11:38:25;;;;;;;2.53;1.00;;;17.10;99.90;;;;;;4963461;28;20031;-95
2021/10/26 11:40:53;;;;;;;3.03;0.82;;;17.30;99.90;;;;;;4969908;28;20027;-94
2021/10/26 11:43:20;;;;;;;3.28;1.08;;;17.50;99.90;;;;;;4969432;28;20054;-93
2021/10/26 11:46:23;;;;;;;2.38;0.93;;;17.80;99.90;;;;;;4964194;28;20547;-96
2021/10/26 11:48:51;;;;;;;1.42;0.63;;;18.10;99.90;;;;;;4948909;28;20146;-94
2021/10/26 11:51:40;;;;;;;2.38;0.77;;;18.00;99.90;;;;;;4966701;28;20031;-94
2021/10/26 11:54:30;;;;;;;4.55;1.45;;;17.70;99.90;;;;;;4967632;28;20175;-95
2021/10/26 11:57:04;;;;;;;2.97;1.25;;;17.20;99.90;;;;;;4959649;28;20062;-94
2021/10/26 11:59:31;;;;;;;4.47;1.23;;;16.90;99.90;;;;;;4959763;28;20042;-94
2021/10/26 12:01:59;;;;;;;4.35;1.10;;;16.60;99.90;;;;;;4959765;28;20030;-94
2021/10/26 12:04:29;;;;;;;4.00;1.17;;;16.50;99.90;;;;;;4959495;28;20035;-94
2021/10/26 12:07:00;;;;;;;6.25;1.30;;;16.40;99.90;;;;;;4959750;28;20018;-94
2021/10/26 12:09:31;;;;;;;2.30;1.05;;;16.40;99.90;;;;;;4959259;28;20034;-94
2021/10/26 12:11:59;;;;;;;;;;;16.40;99.90;;;;;;4959400;28;20042;-95
2021/10/26 12:14:27;;;;;;;2.30;1.00;;;16.30;99.90;;;;;;4975113;28;19906;-94
2021/10/26 12:17:15;;;;;;;2.15;0.90;;;16.30;99.90;;;;;;4958876;28;20041;-93
2021/10/26 12:19:58;;;;;;;4.72;1.17;;;16.30;99.90;;;;;;4969119;28;20057;-96
2021/10/26 12:22:47;;;;;;;6.25;0.95;;;16.60;99.90;;;;;;4977091;28;20026;-96
2021/10/26 12:25:56;;;;;;;3.92;1.20;;;16.90;99.90;;;;;;4997283;28;20033;-96
2021/10/26 12:28:29;;;;;;;2.35;0.80;;;17.40;99.90;;;;;;4979634;28;20102;-96
2021/10/26 12:34:03;;;;;;;5.28;0.90;;;18.20;99.90;;;;;;4997065;28;20034;-96
2021/10/26 12:37:15;;;;;;;5.07;0.90;;;18.50;99.90;;;;;;4996107;28;20144;-96
2021/10/26 12:39:52;;;;;;;5.43;1.08;;;18.60;99.90;;;;;;5000084;23;20053;-95
2021/10/26 12:42:35;;;;;;;4.03;0.93;;;18.60;99.90;;;;;;5000328;28;20027;-95
2021/10/26 12:45:09;;;;;;;2.35;0.77;;;18.30;99.90;;;;;;5015272;28;20023;-96
2021/10/26 12:47:56;;;;;;;6.43;1.10;;;18.00;99.90;;;;;;4995129;28;20053;-94
2021/10/26 12:50:43;;;;;;;1.92;0.63;;;17.70;99.90;;;;;;5015032;28;20026;-96
2021/10/26 12:55:56;;;;;;;3.70;0.90;;;17.30;99.90;;;;;;5023747;23;20062;-96
2021/10/26 12:58:47;;;;;;;6.05;0.90;;;17.10;99.90;;;;;;4992923;28;20050;-95
2021/10/26 13:01:32;;;;;;;2.30;0.90;;;17.20;99.90;;;;;;4995283;28;20099;-95
2021/10/26 13:03:59;;;;;;;4.85;1.00;;;17.20;99.90;;;;;;4990938;28;20030;-95
2021/10/26 13:06:46;;;;;;;8.10;1.20;;;17.20;99.90;;;;;;5009311;28;20022;-96
2021/10/26 13:09:41;;;;;;;3.10;0.80;;;17.30;99.90;;;;;;4991551;28;20034;-96
2021/10/26 13:12:28;;;;;;;2.72;0.98;;;17.80;99.90;;;;;;4997274;28;20025;-95
2021/10/26 13:15:11;;;;;;;3.08;0.95;;;18.30;99.90;;;;;;4997477;28;20042;-95
2021/10/26 13:17:41;;;;;;;4.55;0.90;;;18.80;99.80;;;;;;4993351;28;20019;-95
2021/10/26 13:20:15;;;;;;;4.93;1.05;;;19.00;98.00;;;;;;4991018;28;20030;-95
2021/10/26 13:23:08;;;;;;;7.30;1.30;;;19.10;97.40;;;;;;4990520;28;20033;-94
2021/10/26 13:25:43;;;;;;;6.07;2.00;;;19.30;96.80;;;;;;4992029;28;20049;-94
2021/10/26 13:28:10;;;;;;;5.07;1.00;;;19.40;96.10;;;;;;4993653;28;20030;-95